Terminal Aerodrome Forecast
Issued by NWS

Home | Current Version | Previous Version | Text Only | Print | Product List | Glossary On
Versions: 1 2 3 4 5 6 7 8 9 10 11 12 13 14 15 16 17 18 19 20 21
000
FTUS45 KBOU 271739
TAFAPA
TAF
KAPA 271739Z 2718/2818 01016G26KT P6SM VCSH SCT025 BKN035 BKN050
      TEMPO 2718/2720 -SHRA BKN025
     FM272000 03013G20KT P6SM VCSH SCT040 BKN060
      TEMPO 2720/2723 -SHRA BKN030
     FM272300 36008KT P6SM VCSH SCT030 BKN050
     FM280200 29007KT P6SM FEW060 BKN200
     FM280400 18006KT P6SM BKN200
     FM281600 15004KT P6SM SCT150=

USA.gov is the U.S. government's official web portal to all federal, state and local government web resources and services.